sensor_id;sensor_type;location;lat;lon;timestamp;temperature;humidity
8858;DHT22;4465;50.904;4.696;2023-02-14T00:01:05;4.70;99.90
8858;DHT22;4465;50.904;4.696;2023-02-14T00:03:33;4.60;99.90
8858;DHT22;4465;50.904;4.696;2023-02-14T00:06:08;4.60;99.90
8858;DHT22;4465;50.904;4.696;2023-02-14T00:08:35;4.50;99.90
8858;DHT22;4465;50.904;4.696;2023-02-14T00:11:02;4.50;99.90
8858;DHT22;4465;50.904;4.696;2023-02-14T00:13:28;4.50;99.90
8858;DHT22;4465;50.904;4.696;2023-02-14T00:15:54;4.40;99.90
8858;DHT22;4465;50.904;4.696;2023-02-14T00:18:22;4.40;99.90
8858;DHT22;4465;50.904;4.696;2023-02-14T00:21:11;4.40;99.90
8858;DHT22;4465;50.904;4.696;2023-02-14T00:23:37;4.30;99.90
8858;DHT22;4465;50.904;4.696;2023-02-14T00:26:03;4.30;99.90
8858;DHT22;4465;50.904;4.696;2023-02-14T00:28:28;4.30;99.90
8858;DHT22;4465;50.904;4.696;2023-02-14T00:31:00;4.20;99.90
8858;DHT22;4465;50.904;4.696;2023-02-14T00:33:26;4.20;99.90
8858;DHT22;4465;50.904;4.696;2023-02-14T00:35:54;4.20;99.90
8858;DHT22;4465;50.904;4.696;2023-02-14T00:38:22;4.10;99.90
8858;DHT22;4465;50.904;4.696;2023-02-14T00:40:50;4.10;99.90
8858;DHT22;4465;50.904;4.696;2023-02-14T00:43:16;4.10;99.90
8858;DHT22;4465;50.904;4.696;2023-02-14T00:45:42;4.00;99.90
8858;DHT22;4465;50.904;4.696;2023-02-14T00:48:08;4.00;99.90
8858;DHT22;4465;50.904;4.696;2023-02-14T00:50:36;4.00;99.90
8858;DHT22;4465;50.904;4.696;2023-02-14T00:53:02;4.00;99.90
8858;DHT22;4465;50.904;4.696;2023-02-14T00:55:28;4.00;99.90
8858;DHT22;4465;50.904;4.696;2023-02-14T00:57:54;3.90;99.90
8858;DHT22;4465;50.904;4.696;2023-02-14T01:00:20;3.90;99.90
8858;DHT22;4465;50.904;4.696;2023-02-14T01:02:48;3.90;99.90
8858;DHT22;4465;50.904;4.696;2023-02-14T01:05:16;3.90;99.90
8858;DHT22;4465;50.904;4.696;2023-02-14T01:07:43;3.90;99.90
8858;DHT22;4465;50.904;4.696;2023-02-14T01:10:09;3.80;99.90
8858;DHT22;4465;50.904;4.696;2023-02-14T01:12:35;3.80;99.90
8858;DHT22;4465;50.904;4.696;2023-02-14T01:15:01;3.80;99.90
8858;DHT22;4465;50.904;4.696;2023-02-14T01:17:27;3.80;99.90
8858;DHT22;4465;50.904;4.696;2023-02-14T01:19:55;3.80;99.90
8858;DHT22;4465;50.904;4.696;2023-02-14T01:22:21;3.70;99.90
8858;DHT22;4465;50.904;4.696;2023-02-14T01:24:47;3.70;99.90
8858;DHT22;4465;50.904;4.696;2023-02-14T01:27:13;3.70;99.90
8858;DHT22;4465;50.904;4.696;2023-02-14T01:29:39;3.70;99.90
8858;DHT22;4465;50.904;4.696;2023-02-14T01:32:07;3.80;99.90
8858;DHT22;4465;50.904;4.696;2023-02-14T01:34:33;3.60;99.90
8858;DHT22;4465;50.904;4.696;2023-02-14T01:36:59;3.60;99.90
8858;DHT22;4465;50.904;4.696;2023-02-14T01:39:25;3.50;99.90
8858;DHT22;4465;50.904;4.696;2023-02-14T01:41:51;3.60;99.90
8858;DHT22;4465;50.904;4.696;2023-02-14T01:47:04;3.50;99.90
8858;DHT22;4465;50.904;4.696;2023-02-14T01:49:40;3.50;99.90
8858;DHT22;4465;50.904;4.696;2023-02-14T01:52:16;3.50;99.90
8858;DHT22;4465;50.904;4.696;2023-02-14T01:55:18;3.40;99.90
8858;DHT22;4465;50.904;4.696;2023-02-14T01:58:08;3.40;99.90
8858;DHT22;4465;50.904;4.696;2023-02-14T02:00:34;3.40;99.90
8858;DHT22;4465;50.904;4.696;2023-02-14T02:03:34;3.40;99.90
8858;DHT22;4465;50.904;4.696;2023-02-14T02:06:12;3.40;99.90
8858;DHT22;4465;50.904;4.696;2023-02-14T02:08:46;3.30;99.90
8858;DHT22;4465;50.904;4.696;2023-02-14T02:11:13;3.30;99.90
8858;DHT22;4465;50.904;4.696;2023-02-14T02:13:41;3.30;99.90
8858;DHT22;4465;50.904;4.696;2023-02-14T02:22:00;3.20;99.90
8858;DHT22;4465;50.904;4.696;2023-02-14T02:33:39;3.10;99.90
8858;DHT22;4465;50.904;4.696;2023-02-14T02:44:54;3.00;99.90
8858;DHT22;4465;50.904;4.696;2023-02-14T02:47:32;2.90;99.90
8858;DHT22;4465;50.904;4.696;2023-02-14T02:53:41;2.80;99.90
8858;DHT22;4465;50.904;4.696;2023-02-14T02:56:15;2.70;99.90
8858;DHT22;4465;50.904;4.696;2023-02-14T03:01:54;2.60;99.90
8858;DHT22;4465;50.904;4.696;2023-02-14T03:04:21;2.60;99.90
8858;DHT22;4465;50.904;4.696;2023-02-14T03:07:06;2.60;99.90
8858;DHT22;4465;50.904;4.696;2023-02-14T03:10:00;2.50;99.90
8858;DHT22;4465;50.904;4.696;2023-02-14T03:13:04;2.50;99.90
8858;DHT22;4465;50.904;4.696;2023-02-14T03:18:08;2.50;99.90
8858;DHT22;4465;50.904;4.696;2023-02-14T03:26:16;2.30;99.90
8858;DHT22;4465;50.904;4.696;2023-02-14T03:31:27;2.30;99.90
8858;DHT22;4465;50.904;4.696;2023-02-14T03:42:10;2.30;99.90
8858;DHT22;4465;50.904;4.696;2023-02-14T03:44:38;2.30;99.90
8858;DHT22;4465;50.904;4.696;2023-02-14T03:47:17;2.30;99.90
8858;DHT22;4465;50.904;4.696;2023-02-14T03:50:09;2.30;99.90
8858;DHT22;4465;50.904;4.696;2023-02-14T03:52:37;2.30;99.90
8858;DHT22;4465;50.904;4.696;2023-02-14T03:55:06;2.20;99.90
8858;DHT22;4465;50.904;4.696;2023-02-14T03:58:01;2.30;99.90
8858;DHT22;4465;50.904;4.696;2023-02-14T04:00:29;2.20;99.90
8858;DHT22;4465;50.904;4.696;2023-02-14T04:03:02;2.30;99.90
8858;DHT22;4465;50.904;4.696;2023-02-14T04:05:30;2.20;99.90
8858;DHT22;4465;50.904;4.696;2023-02-14T04:07:59;2.20;99.90
8858;DHT22;4465;50.904;4.696;2023-02-14T04:10:25;2.10;99.90
8858;DHT22;4465;50.904;4.696;2023-02-14T04:12:56;2.10;99.90
8858;DHT22;4465;50.904;4.696;2023-02-14T04:15:22;2.10;99.90
8858;DHT22;4465;50.904;4.696;2023-02-14T04:17:48;2.10;99.90
8858;DHT22;4465;50.904;4.696;2023-02-14T04:20:32;2.10;99.90
8858;DHT22;4465;50.904;4.696;2023-02-14T04:23:02;2.00;99.90
8858;DHT22;4465;50.904;4.696;2023-02-14T04:25:28;2.00;99.90
8858;DHT22;4465;50.904;4.696;2023-02-14T04:27:59;2.00;99.90
8858;DHT22;4465;50.904;4.696;2023-02-14T04:30:25;2.10;99.90
8858;DHT22;4465;50.904;4.696;2023-02-14T04:32:51;1.90;99.90
8858;DHT22;4465;50.904;4.696;2023-02-14T04:35:16;2.00;99.90
8858;DHT22;4465;50.904;4.696;2023-02-14T04:37:42;2.00;99.90
8858;DHT22;4465;50.904;4.696;2023-02-14T04:40:11;2.00;99.90
8858;DHT22;4465;50.904;4.696;2023-02-14T04:42:41;2.00;99.90
8858;DHT22;4465;50.904;4.696;2023-02-14T04:45:07;2.10;99.90
8858;DHT22;4465;50.904;4.696;2023-02-14T04:47:33;2.10;99.90
8858;DHT22;4465;50.904;4.696;2023-02-14T04:49:59;2.10;99.90
8858;DHT22;4465;50.904;4.696;2023-02-14T04:52:25;2.10;99.90
8858;DHT22;4465;50.904;4.696;2023-02-14T04:54:53;2.20;99.90
8858;DHT22;4465;50.904;4.696;2023-02-14T04:57:19;2.10;99.90
8858;DHT22;4465;50.904;4.696;2023-02-14T04:59:46;2.10;99.90
8858;DHT22;4465;50.904;4.696;2023-02-14T05:02:16;2.20;99.90
8858;DHT22;4465;50.904;4.696;2023-02-14T05:04:42;2.20;99.90
8858;DHT22;4465;50.904;4.696;2023-02-14T05:07:10;2.20;99.90
8858;DHT22;4465;50.904;4.696;2023-02-14T05:09:39;2.20;99.90
8858;DHT22;4465;50.904;4.696;2023-02-14T05:12:05;2.30;99.90
8858;DHT22;4465;50.904;4.696;2023-02-14T05:14:31;2.30;99.90
8858;DHT22;4465;50.904;4.696;2023-02-14T05:16:57;2.30;99.90
8858;DHT22;4465;50.904;4.696;2023-02-14T05:19:27;2.30;99.90
8858;DHT22;4465;50.904;4.696;2023-02-14T05:21:53;2.30;99.90
8858;DHT22;4465;50.904;4.696;2023-02-14T05:24:22;2.40;99.90
8858;DHT22;4465;50.904;4.696;2023-02-14T05:26:48;2.30;99.90
8858;DHT22;4465;50.904;4.696;2023-02-14T05:29:14;2.50;99.90
8858;DHT22;4465;50.904;4.696;2023-02-14T05:31:44;2.50;99.90
8858;DHT22;4465;50.904;4.696;2023-02-14T05:34:13;2.40;99.90
8858;DHT22;4465;50.904;4.696;2023-02-14T05:36:39;2.40;99.90
8858;DHT22;4465;50.904;4.696;2023-02-14T05:39:05;2.40;99.90
8858;DHT22;4465;50.904;4.696;2023-02-14T05:41:31;2.50;99.90
8858;DHT22;4465;50.904;4.696;2023-02-14T05:43:59;2.50;99.90
8858;DHT22;4465;50.904;4.696;2023-02-14T05:46:27;2.60;99.90
8858;DHT22;4465;50.904;4.696;2023-02-14T05:48:52;2.50;99.90
8858;DHT22;4465;50.904;4.696;2023-02-14T05:51:23;2.60;99.90
8858;DHT22;4465;50.904;4.696;2023-02-14T05:53:49;2.60;99.90
8858;DHT22;4465;50.904;4.696;2023-02-14T05:56:15;2.60;99.90
8858;DHT22;4465;50.904;4.696;2023-02-14T05:58:43;2.70;99.90
8858;DHT22;4465;50.904;4.696;2023-02-14T06:01:11;2.70;99.90
8858;DHT22;4465;50.904;4.696;2023-02-14T06:03:40;2.70;99.90
8858;DHT22;4465;50.904;4.696;2023-02-14T06:06:08;2.70;99.90
8858;DHT22;4465;50.904;4.696;2023-02-14T06:08:37;2.70;99.90
8858;DHT22;4465;50.904;4.696;2023-02-14T06:11:02;2.70;99.90
8858;DHT22;4465;50.904;4.696;2023-02-14T06:13:28;2.70;99.90
8858;DHT22;4465;50.904;4.696;2023-02-14T06:16:03;2.70;99.90
8858;DHT22;4465;50.904;4.696;2023-02-14T06:18:29;2.70;99.90
8858;DHT22;4465;50.904;4.696;2023-02-14T06:20:57;2.70;99.90
8858;DHT22;4465;50.904;4.696;2023-02-14T06:23:23;2.70;99.90
8858;DHT22;4465;50.904;4.696;2023-02-14T06:25:49;2.70;99.90
8858;DHT22;4465;50.904;4.696;2023-02-14T06:28:17;2.70;99.90
8858;DHT22;4465;50.904;4.696;2023-02-14T06:30:45;2.70;99.90
8858;DHT22;4465;50.904;4.696;2023-02-14T06:33:11;2.80;99.90
8858;DHT22;4465;50.904;4.696;2023-02-14T06:35:37;2.70;99.90
8858;DHT22;4465;50.904;4.696;2023-02-14T06:38:05;2.70;99.90
8858;DHT22;4465;50.904;4.696;2023-02-14T06:40:33;2.70;99.90
8858;DHT22;4465;50.904;4.696;2023-02-14T06:42:59;2.70;99.90
8858;DHT22;4465;50.904;4.696;2023-02-14T06:45:27;2.90;99.90
8858;DHT22;4465;50.904;4.696;2023-02-14T06:47:55;2.80;99.90
8858;DHT22;4465;50.904;4.696;2023-02-14T06:50:21;2.60;99.90
8858;DHT22;4465;50.904;4.696;2023-02-14T06:52:47;2.60;99.90
8858;DHT22;4465;50.904;4.696;2023-02-14T06:55:13;2.60;99.90
8858;DHT22;4465;50.904;4.696;2023-02-14T06:57:48;2.60;99.90
8858;DHT22;4465;50.904;4.696;2023-02-14T07:00:14;2.70;99.90
8858;DHT22;4465;50.904;4.696;2023-02-14T07:02:40;2.60;99.90
8858;DHT22;4465;50.904;4.696;2023-02-14T07:05:06;2.60;99.90
8858;DHT22;4465;50.904;4.696;2023-02-14T07:07:32;2.50;99.90
8858;DHT22;4465;50.904;4.696;2023-02-14T07:09:58;2.50;99.90
8858;DHT22;4465;50.904;4.696;2023-02-14T07:12:24;2.50;99.90
8858;DHT22;4465;50.904;4.696;2023-02-14T07:14:50;2.40;99.90
8858;DHT22;4465;50.904;4.696;2023-02-14T07:17:16;2.40;99.90
8858;DHT22;4465;50.904;4.696;2023-02-14T07:19:45;2.40;99.90
8858;DHT22;4465;50.904;4.696;2023-02-14T07:22:11;2.40;99.90
8858;DHT22;4465;50.904;4.696;2023-02-14T07:24:46;2.40;99.90
8858;DHT22;4465;50.904;4.696;2023-02-14T07:27:14;2.30;99.90
8858;DHT22;4465;50.904;4.696;2023-02-14T07:29:42;2.30;99.90
8858;DHT22;4465;50.904;4.696;2023-02-14T07:32:11;2.30;99.90
8858;DHT22;4465;50.904;4.696;2023-02-14T07:34:37;2.30;99.90
8858;DHT22;4465;50.904;4.696;2023-02-14T07:37:02;2.30;99.90
8858;DHT22;4465;50.904;4.696;2023-02-14T07:39:28;2.20;99.90
8858;DHT22;4465;50.904;4.696;2023-02-14T07:41:56;2.20;99.90
8858;DHT22;4465;50.904;4.696;2023-02-14T07:44:24;2.30;99.90
8858;DHT22;4465;50.904;4.696;2023-02-14T07:46:50;2.30;99.90
8858;DHT22;4465;50.904;4.696;2023-02-14T07:49:16;2.30;99.90
8858;DHT22;4465;50.904;4.696;2023-02-14T07:51:42;2.30;99.90
8858;DHT22;4465;50.904;4.696;2023-02-14T07:54:10;2.40;99.90
8858;DHT22;4465;50.904;4.696;2023-02-14T07:56:36;2.40;99.90
8858;DHT22;4465;50.904;4.696;2023-02-14T07:59:02;2.60;99.90
8858;DHT22;4465;50.904;4.696;2023-02-14T08:01:28;2.50;99.90
8858;DHT22;4465;50.904;4.696;2023-02-14T08:03:53;2.60;99.90
8858;DHT22;4465;50.904;4.696;2023-02-14T08:06:20;2.60;99.90
8858;DHT22;4465;50.904;4.696;2023-02-14T08:08:46;2.70;99.90
8858;DHT22;4465;50.904;4.696;2023-02-14T08:11:15;2.90;99.90
8858;DHT22;4465;50.904;4.696;2023-02-14T08:14:01;2.90;99.90
8858;DHT22;4465;50.904;4.696;2023-02-14T08:16:27;2.90;99.90
8858;DHT22;4465;50.904;4.696;2023-02-14T08:18:55;3.10;99.90
8858;DHT22;4465;50.904;4.696;2023-02-14T08:21:21;3.20;99.90
8858;DHT22;4465;50.904;4.696;2023-02-14T08:23:47;3.40;99.90
8858;DHT22;4465;50.904;4.696;2023-02-14T08:26:13;3.60;99.90
8858;DHT22;4465;50.904;4.696;2023-02-14T08:28:39;3.90;99.90
8858;DHT22;4465;50.904;4.696;2023-02-14T08:31:07;4.20;99.90
8858;DHT22;4465;50.904;4.696;2023-02-14T08:33:33;4.40;99.90
8858;DHT22;4465;50.904;4.696;2023-02-14T08:35:59;4.70;99.90
8858;DHT22;4465;50.904;4.696;2023-02-14T08:38:25;4.90;99.90
8858;DHT22;4465;50.904;4.696;2023-02-14T08:40:54;5.00;99.90
8858;DHT22;4465;50.904;4.696;2023-02-14T08:43:19;5.20;99.90
8858;DHT22;4465;50.904;4.696;2023-02-14T08:45:45;5.40;99.90
8858;DHT22;4465;50.904;4.696;2023-02-14T08:48:13;5.60;99.90
8858;DHT22;4465;50.904;4.696;2023-02-14T08:50:39;5.70;99.90
8858;DHT22;4465;50.904;4.696;2023-02-14T08:53:07;5.80;99.90
8858;DHT22;4465;50.904;4.696;2023-02-14T08:55:34;5.90;99.90
8858;DHT22;4465;50.904;4.696;2023-02-14T08:58:00;5.90;99.90
8858;DHT22;4465;50.904;4.696;2023-02-14T09:00:29;5.90;99.90
8858;DHT22;4465;50.904;4.696;2023-02-14T09:03:00;5.90;99.90
8858;DHT22;4465;50.904;4.696;2023-02-14T09:05:32;5.90;99.90
8858;DHT22;4465;50.904;4.696;2023-02-14T09:08:01;5.90;99.90
8858;DHT22;4465;50.904;4.696;2023-02-14T09:10:29;6.00;99.90
8858;DHT22;4465;50.904;4.696;2023-02-14T09:12:55;6.00;99.90
8858;DHT22;4465;50.904;4.696;2023-02-14T09:15:21;6.10;99.90
8858;DHT22;4465;50.904;4.696;2023-02-14T09:17:47;6.10;99.90
8858;DHT22;4465;50.904;4.696;2023-02-14T09:20:14;6.20;99.90
8858;DHT22;4465;50.904;4.696;2023-02-14T09:22:42;6.30;99.90
8858;DHT22;4465;50.904;4.696;2023-02-14T09:25:08;6.50;99.90
8858;DHT22;4465;50.904;4.696;2023-02-14T09:27:34;6.50;99.90
8858;DHT22;4465;50.904;4.696;2023-02-14T09:30:06;6.60;99.90
8858;DHT22;4465;50.904;4.696;2023-02-14T09:32:34;6.80;99.90
8858;DHT22;4465;50.904;4.696;2023-02-14T09:35:02;6.90;99.90
8858;DHT22;4465;50.904;4.696;2023-02-14T09:37:33;7.10;99.90
8858;DHT22;4465;50.904;4.696;2023-02-14T09:39:59;7.30;99.90
8858;DHT22;4465;50.904;4.696;2023-02-14T09:42:58;7.30;99.90
8858;DHT22;4465;50.904;4.696;2023-02-14T09:45:28;7.50;99.90
8858;DHT22;4465;50.904;4.696;2023-02-14T09:50:47;7.80;99.90
8858;DHT22;4465;50.904;4.696;2023-02-14T09:53:26;8.00;99.90
8858;DHT22;4465;50.904;4.696;2023-02-14T10:01:27;8.40;99.90
8858;DHT22;4465;50.904;4.696;2023-02-14T10:11:57;9.00;99.90
8858;DHT22;4465;50.904;4.696;2023-02-14T10:14:26;9.20;99.90
8858;DHT22;4465;50.904;4.696;2023-02-14T10:17:30;9.40;99.90
8858;DHT22;4465;50.904;4.696;2023-02-14T10:20:05;9.70;99.90
8858;DHT22;4465;50.904;4.696;2023-02-14T10:22:55;10.00;99.90
8858;DHT22;4465;50.904;4.696;2023-02-14T10:25:28;10.30;99.90
8858;DHT22;4465;50.904;4.696;2023-02-14T10:27:58;10.70;99.90
8858;DHT22;4465;50.904;4.696;2023-02-14T10:30:25;11.10;99.90
8858;DHT22;4465;50.904;4.696;2023-02-14T10:36:04;12.00;99.90
8858;DHT22;4465;50.904;4.696;2023-02-14T10:41:44;12.80;99.90
8858;DHT22;4465;50.904;4.696;2023-02-14T10:44:20;13.20;99.90
8858;DHT22;4465;50.904;4.696;2023-02-14T10:47:04;13.70;99.90
8858;DHT22;4465;50.904;4.696;2023-02-14T10:55:26;14.50;99.90
8858;DHT22;4465;50.904;4.696;2023-02-14T10:57:56;14.60;99.90
8858;DHT22;4465;50.904;4.696;2023-02-14T11:00:23;14.70;99.90
8858;DHT22;4465;50.904;4.696;2023-02-14T11:02:55;14.80;99.90
8858;DHT22;4465;50.904;4.696;2023-02-14T11:05:46;14.90;99.90
8858;DHT22;4465;50.904;4.696;2023-02-14T11:10:50;15.10;99.90
8858;DHT22;4465;50.904;4.696;2023-02-14T11:16:03;15.30;99.90
8858;DHT22;4465;50.904;4.696;2023-02-14T11:18:29;15.60;99.90
8858;DHT22;4465;50.904;4.696;2023-02-14T11:21:15;15.70;99.90
8858;DHT22;4465;50.904;4.696;2023-02-14T11:23:48;15.90;99.90
8858;DHT22;4465;50.904;4.696;2023-02-14T11:26:27;15.90;99.90
8858;DHT22;4465;50.904;4.696;2023-02-14T11:28:58;16.00;99.90
8858;DHT22;4465;50.904;4.696;2023-02-14T11:31:31;16.10;99.90
8858;DHT22;4465;50.904;4.696;2023-02-14T11:34:05;16.10;99.90
8858;DHT22;4465;50.904;4.696;2023-02-14T11:36:40;16.20;99.90
8858;DHT22;4465;50.904;4.696;2023-02-14T11:39:31;16.30;99.90
8858;DHT22;4465;50.904;4.696;2023-02-14T11:42:01;16.50;99.90
8858;DHT22;4465;50.904;4.696;2023-02-14T11:44:30;16.70;99.90
8858;DHT22;4465;50.904;4.696;2023-02-14T11:47:21;16.90;99.90
8858;DHT22;4465;50.904;4.696;2023-02-14T11:49:59;17.10;99.90
8858;DHT22;4465;50.904;4.696;2023-02-14T11:52:27;17.30;99.90
8858;DHT22;4465;50.904;4.696;2023-02-14T11:55:00;17.50;99.90
8858;DHT22;4465;50.904;4.696;2023-02-14T11:57:28;17.60;99.90
8858;DHT22;4465;50.904;4.696;2023-02-14T11:59:59;17.70;99.90
8858;DHT22;4465;50.904;4.696;2023-02-14T12:02:38;17.90;99.90
8858;DHT22;4465;50.904;4.696;2023-02-14T12:05:27;18.00;99.90
8858;DHT22;4465;50.904;4.696;2023-02-14T12:08:01;18.10;99.90
8858;DHT22;4465;50.904;4.696;2023-02-14T12:10:35;18.20;99.90
8858;DHT22;4465;50.904;4.696;2023-02-14T12:15:39;18.00;99.90
8858;DHT22;4465;50.904;4.696;2023-02-14T12:26:56;17.50;99.90
8858;DHT22;4465;50.904;4.696;2023-02-14T12:29:50;17.60;99.90
8858;DHT22;4465;50.904;4.696;2023-02-14T12:32:27;17.80;99.90
8858;DHT22;4465;50.904;4.696;2023-02-14T12:35:11;18.00;99.90
8858;DHT22;4465;50.904;4.696;2023-02-14T12:40:10;18.30;99.90
8858;DHT22;4465;50.904;4.696;2023-02-14T12:51:20;19.40;99.90
8858;DHT22;4465;50.904;4.696;2023-02-14T12:56:41;19.70;99.90
8858;DHT22;4465;50.904;4.696;2023-02-14T13:05:10;19.90;99.90
8858;DHT22;4465;50.904;4.696;2023-02-14T13:08:01;20.10;99.90
8858;DHT22;4465;50.904;4.696;2023-02-14T13:10:47;19.90;99.90
8858;DHT22;4465;50.904;4.696;2023-02-14T13:18:42;19.20;99.90
8858;DHT22;4465;50.904;4.696;2023-02-14T13:21:15;19.00;99.90
8858;DHT22;4465;50.904;4.696;2023-02-14T13:23:46;18.90;99.90
8858;DHT22;4465;50.904;4.696;2023-02-14T13:26:23;18.70;99.90
8858;DHT22;4465;50.904;4.696;2023-02-14T13:29:09;18.70;99.90
8858;DHT22;4465;50.904;4.696;2023-02-14T13:31:39;18.70;99.90
8858;DHT22;4465;50.904;4.696;2023-02-14T13:34:41;18.60;99.90
8858;DHT22;4465;50.904;4.696;2023-02-14T13:37:11;18.60;99.90
8858;DHT22;4465;50.904;4.696;2023-02-14T13:39:42;18.50;99.90
8858;DHT22;4465;50.904;4.696;2023-02-14T13:42:10;18.40;99.90
8858;DHT22;4465;50.904;4.696;2023-02-14T13:44:51;18.40;99.90
8858;DHT22;4465;50.904;4.696;2023-02-14T13:47:26;18.40;99.90
8858;DHT22;4465;50.904;4.696;2023-02-14T13:49:58;18.30;99.90
8858;DHT22;4465;50.904;4.696;2023-02-14T13:52:45;18.30;99.90
8858;DHT22;4465;50.904;4.696;2023-02-14T13:55:25;18.30;99.90
8858;DHT22;4465;50.904;4.696;2023-02-14T13:58:14;18.30;99.90
8858;DHT22;4465;50.904;4.696;2023-02-14T14:00:48;18.20;99.90
8858;DHT22;4465;50.904;4.696;2023-02-14T14:08:36;18.20;99.90
8858;DHT22;4465;50.904;4.696;2023-02-14T14:14:03;18.30;99.90
8858;DHT22;4465;50.904;4.696;2023-02-14T14:16:35;18.40;99.90
8858;DHT22;4465;50.904;4.696;2023-02-14T14:21:59;18.60;99.90
8858;DHT22;4465;50.904;4.696;2023-02-14T14:24:28;18.50;99.90
8858;DHT22;4465;50.904;4.696;2023-02-14T14:27:17;18.50;99.90
8858;DHT22;4465;50.904;4.696;2023-02-14T14:29:47;18.30;99.90
8858;DHT22;4465;50.904;4.696;2023-02-14T14:34:58;18.10;99.90
8858;DHT22;4465;50.904;4.696;2023-02-14T14:37:30;18.10;99.90
8858;DHT22;4465;50.904;4.696;2023-02-14T14:39:58;18.20;99.90
8858;DHT22;4465;50.904;4.696;2023-02-14T14:42:28;18.20;99.90
8858;DHT22;4465;50.904;4.696;2023-02-14T14:45:07;18.10;99.90
8858;DHT22;4465;50.904;4.696;2023-02-14T14:47:40;18.00;99.90
8858;DHT22;4465;50.904;4.696;2023-02-14T14:50:22;17.90;99.90
8858;DHT22;4465;50.904;4.696;2023-02-14T14:52:51;17.70;99.90
8858;DHT22;4465;50.904;4.696;2023-02-14T14:55:27;17.50;99.90
8858;DHT22;4465;50.904;4.696;2023-02-14T14:57:56;17.30;99.90
8858;DHT22;4465;50.904;4.696;2023-02-14T15:00:31;17.00;99.90
8858;DHT22;4465;50.904;4.696;2023-02-14T15:03:26;16.80;99.90
8858;DHT22;4465;50.904;4.696;2023-02-14T15:06:06;16.60;99.90
8858;DHT22;4465;50.904;4.696;2023-02-14T15:08:33;16.50;99.90
8858;DHT22;4465;50.904;4.696;2023-02-14T15:11:19;16.30;99.90
8858;DHT22;4465;50.904;4.696;2023-02-14T15:14:12;16.20;99.90
8858;DHT22;4465;50.904;4.696;2023-02-14T15:19:30;15.90;99.90
8858;DHT22;4465;50.904;4.696;2023-02-14T15:22:19;15.70;99.90
8858;DHT22;4465;50.904;4.696;2023-02-14T15:24:46;15.60;99.90
8858;DHT22;4465;50.904;4.696;2023-02-14T15:27:18;15.60;99.90
8858;DHT22;4465;50.904;4.696;2023-02-14T15:30:04;15.50;99.90
8858;DHT22;4465;50.904;4.696;2023-02-14T15:32:33;15.30;99.90
8858;DHT22;4465;50.904;4.696;2023-02-14T15:35:04;15.20;99.90
8858;DHT22;4465;50.904;4.696;2023-02-14T15:37:32;15.10;99.90
8858;DHT22;4465;50.904;4.696;2023-02-14T15:39:58;15.00;99.90
8858;DHT22;4465;50.904;4.696;2023-02-14T15:42:28;14.90;99.90
8858;DHT22;4465;50.904;4.696;2023-02-14T15:47:59;14.70;99.90
8858;DHT22;4465;50.904;4.696;2023-02-14T15:50:32;14.60;99.90
8858;DHT22;4465;50.904;4.696;2023-02-14T15:55:46;14.30;99.90
8858;DHT22;4465;50.904;4.696;2023-02-14T15:58:19;14.20;99.90
8858;DHT22;4465;50.904;4.696;2023-02-14T16:00:46;14.10;99.90
8858;DHT22;4465;50.904;4.696;2023-02-14T16:03:24;14.00;99.90
8858;DHT22;4465;50.904;4.696;2023-02-14T16:05:53;13.90;99.90
8858;DHT22;4465;50.904;4.696;2023-02-14T16:13:35;13.60;99.90
8858;DHT22;4465;50.904;4.696;2023-02-14T16:16:07;13.50;99.90
8858;DHT22;4465;50.904;4.696;2023-02-14T16:24:09;13.20;99.90
8858;DHT22;4465;50.904;4.696;2023-02-14T16:26:44;13.10;99.90
8858;DHT22;4465;50.904;4.696;2023-02-14T16:29:13;13.00;99.90
8858;DHT22;4465;50.904;4.696;2023-02-14T16:31:48;12.90;99.90
8858;DHT22;4465;50.904;4.696;2023-02-14T16:34:14;12.90;99.90
8858;DHT22;4465;50.904;4.696;2023-02-14T16:36:45;12.80;99.90
8858;DHT22;4465;50.904;4.696;2023-02-14T16:39:21;12.80;99.90
8858;DHT22;4465;50.904;4.696;2023-02-14T16:41:55;12.70;99.90
8858;DHT22;4465;50.904;4.696;2023-02-14T16:44:20;12.60;99.90
8858;DHT22;4465;50.904;4.696;2023-02-14T16:46:49;12.50;99.90
8858;DHT22;4465;50.904;4.696;2023-02-14T16:49:17;12.50;99.90
8858;DHT22;4465;50.904;4.696;2023-02-14T16:51:44;12.40;99.90
8858;DHT22;4465;50.904;4.696;2023-02-14T16:54:23;12.30;99.90
8858;DHT22;4465;50.904;4.696;2023-02-14T16:56:57;12.20;99.90
8858;DHT22;4465;50.904;4.696;2023-02-14T16:59:24;12.10;99.90
8858;DHT22;4465;50.904;4.696;2023-02-14T17:01:50;12.00;99.90
8858;DHT22;4465;50.904;4.696;2023-02-14T17:04:18;11.80;99.90
8858;DHT22;4465;50.904;4.696;2023-02-14T17:06:49;11.70;99.90
8858;DHT22;4465;50.904;4.696;2023-02-14T17:09:19;11.60;99.90
8858;DHT22;4465;50.904;4.696;2023-02-14T17:11:48;11.60;99.90
8858;DHT22;4465;50.904;4.696;2023-02-14T17:14:18;11.40;99.90
8858;DHT22;4465;50.904;4.696;2023-02-14T17:16:47;11.40;99.90
8858;DHT22;4465;50.904;4.696;2023-02-14T17:19:13;11.20;99.90
8858;DHT22;4465;50.904;4.696;2023-02-14T17:21:40;11.10;99.90
8858;DHT22;4465;50.904;4.696;2023-02-14T17:24:06;11.10;99.90
8858;DHT22;4465;50.904;4.696;2023-02-14T17:26:34;10.90;99.90
8858;DHT22;4465;50.904;4.696;2023-02-14T17:29:03;10.90;99.90
8858;DHT22;4465;50.904;4.696;2023-02-14T17:31:32;10.80;99.90
8858;DHT22;4465;50.904;4.696;2023-02-14T17:34:00;10.70;99.90
8858;DHT22;4465;50.904;4.696;2023-02-14T17:36:29;10.60;99.90
8858;DHT22;4465;50.904;4.696;2023-02-14T17:38:55;10.50;99.90
8858;DHT22;4465;50.904;4.696;2023-02-14T17:41:23;10.40;99.90
8858;DHT22;4465;50.904;4.696;2023-02-14T17:43:51;10.30;99.90
8858;DHT22;4465;50.904;4.696;2023-02-14T17:46:20;10.20;99.90
8858;DHT22;4465;50.904;4.696;2023-02-14T17:48:46;10.10;99.90
8858;DHT22;4465;50.904;4.696;2023-02-14T17:51:14;10.00;99.90
8858;DHT22;4465;50.904;4.696;2023-02-14T17:53:40;9.90;99.90
8858;DHT22;4465;50.904;4.696;2023-02-14T17:56:14;9.80;99.90
8858;DHT22;4465;50.904;4.696;2023-02-14T17:58:51;9.80;99.90
8858;DHT22;4465;50.904;4.696;2023-02-14T18:01:20;9.70;99.90
8858;DHT22;4465;50.904;4.696;2023-02-14T18:03:48;9.60;99.90
8858;DHT22;4465;50.904;4.696;2023-02-14T18:06:16;9.50;99.90
8858;DHT22;4465;50.904;4.696;2023-02-14T18:08:46;9.50;99.90
8858;DHT22;4465;50.904;4.696;2023-02-14T18:11:23;9.40;99.90
8858;DHT22;4465;50.904;4.696;2023-02-14T18:13:51;9.30;99.90
8858;DHT22;4465;50.904;4.696;2023-02-14T18:16:18;9.20;99.90
8858;DHT22;4465;50.904;4.696;2023-02-14T18:18:44;9.20;99.90
8858;DHT22;4465;50.904;4.696;2023-02-14T18:21:17;9.10;99.90
8858;DHT22;4465;50.904;4.696;2023-02-14T18:23:45;9.10;99.90
8858;DHT22;4465;50.904;4.696;2023-02-14T18:26:19;9.10;99.90
8858;DHT22;4465;50.904;4.696;2023-02-14T18:28:48;9.00;99.90
8858;DHT22;4465;50.904;4.696;2023-02-14T18:31:18;8.90;99.90
8858;DHT22;4465;50.904;4.696;2023-02-14T18:33:46;8.90;99.90
8858;DHT22;4465;50.904;4.696;2023-02-14T18:36:15;8.90;99.90
8858;DHT22;4465;50.904;4.696;2023-02-14T18:38:43;8.80;99.90
8858;DHT22;4465;50.904;4.696;2023-02-14T18:41:14;8.80;99.90
8858;DHT22;4465;50.904;4.696;2023-02-14T18:43:41;8.70;99.90
8858;DHT22;4465;50.904;4.696;2023-02-14T18:46:13;8.70;99.90
8858;DHT22;4465;50.904;4.696;2023-02-14T18:48:39;8.70;99.90
8858;DHT22;4465;50.904;4.696;2023-02-14T18:51:13;8.70;99.90
8858;DHT22;4465;50.904;4.696;2023-02-14T18:53:41;8.60;99.90
8858;DHT22;4465;50.904;4.696;2023-02-14T18:56:10;8.50;99.90
8858;DHT22;4465;50.904;4.696;2023-02-14T18:58:40;8.50;99.90
8858;DHT22;4465;50.904;4.696;2023-02-14T19:01:12;8.40;99.90
8858;DHT22;4465;50.904;4.696;2023-02-14T19:03:39;8.40;99.90
8858;DHT22;4465;50.904;4.696;2023-02-14T19:06:09;8.40;99.90
8858;DHT22;4465;50.904;4.696;2023-02-14T19:08:36;8.30;99.90
8858;DHT22;4465;50.904;4.696;2023-02-14T19:11:06;8.30;99.90